sensor_id;sensor_type;location;lat;lon;timestamp;P1;durP1;ratioP1;P2;durP2;ratioP2
61989;SDS011;54506;43.930;20.410;2022-08-19T00:00:25;7.18;;;4.53;;
61989;SDS011;54506;43.930;20.410;2022-08-19T00:02:50;8.18;;;4.95;;
61989;SDS011;54506;43.930;20.410;2022-08-19T00:05:16;8.05;;;4.60;;
61989;SDS011;54506;43.930;20.410;2022-08-19T00:07:42;8.38;;;4.43;;
61989;SDS011;54506;43.930;20.410;2022-08-19T00:10:08;9.00;;;4.65;;
61989;SDS011;54506;43.930;20.410;2022-08-19T00:12:34;7.50;;;4.60;;
61989;SDS011;54506;43.930;20.410;2022-08-19T00:15:00;8.15;;;4.50;;
61989;SDS011;54506;43.930;20.410;2022-08-19T00:17:26;7.88;;;4.53;;
61989;SDS011;54506;43.930;20.410;2022-08-19T00:19:51;8.20;;;4.95;;
61989;SDS011;54506;43.930;20.410;2022-08-19T00:22:16;8.00;;;5.20;;
61989;SDS011;54506;43.930;20.410;2022-08-19T00:24:43;8.43;;;4.97;;
61989;SDS011;54506;43.930;20.410;2022-08-19T00:27:09;8.82;;;5.30;;
61989;SDS011;54506;43.930;20.410;2022-08-19T00:29:34;8.25;;;5.20;;
61989;SDS011;54506;43.930;20.410;2022-08-19T00:32:00;9.10;;;5.00;;
61989;SDS011;54506;43.930;20.410;2022-08-19T00:34:25;8.13;;;5.30;;
61989;SDS011;54506;43.930;20.410;2022-08-19T00:36:54;8.43;;;5.03;;
61989;SDS011;54506;43.930;20.410;2022-08-19T00:39:19;8.85;;;5.47;;
61989;SDS011;54506;43.930;20.410;2022-08-19T00:41:45;8.82;;;5.22;;
61989;SDS011;54506;43.930;20.410;2022-08-19T00:44:15;8.27;;;4.85;;
61989;SDS011;54506;43.930;20.410;2022-08-19T00:46:42;8.88;;;4.80;;
61989;SDS011;54506;43.930;20.410;2022-08-19T00:49:19;7.97;;;4.63;;
61989;SDS011;54506;43.930;20.410;2022-08-19T00:51:46;10.00;;;5.13;;
61989;SDS011;54506;43.930;20.410;2022-08-19T00:54:12;8.18;;;4.95;;
61989;SDS011;54506;43.930;20.410;2022-08-19T00:56:38;8.73;;;5.38;;
61989;SDS011;54506;43.930;20.410;2022-08-19T00:59:05;7.53;;;4.68;;
61989;SDS011;54506;43.930;20.410;2022-08-19T01:01:38;8.27;;;5.30;;
61989;SDS011;54506;43.930;20.410;2022-08-19T01:04:04;8.18;;;5.10;;
61989;SDS011;54506;43.930;20.410;2022-08-19T01:06:31;9.40;;;5.28;;
61989;SDS011;54506;43.930;20.410;2022-08-19T01:08:58;8.32;;;5.40;;
61989;SDS011;54506;43.930;20.410;2022-08-19T01:11:23;8.63;;;5.28;;
61989;SDS011;54506;43.930;20.410;2022-08-19T01:13:48;8.98;;;5.13;;
61989;SDS011;54506;43.930;20.410;2022-08-19T01:16:14;8.30;;;5.18;;
61989;SDS011;54506;43.930;20.410;2022-08-19T01:18:42;9.38;;;4.95;;
61989;SDS011;54506;43.930;20.410;2022-08-19T01:21:09;8.35;;;5.20;;
61989;SDS011;54506;43.930;20.410;2022-08-19T01:23:37;9.18;;;5.18;;
61989;SDS011;54506;43.930;20.410;2022-08-19T01:26:19;9.18;;;5.30;;
61989;SDS011;54506;43.930;20.410;2022-08-19T01:28:46;10.73;;;5.22;;
61989;SDS011;54506;43.930;20.410;2022-08-19T01:31:14;8.85;;;5.45;;
61989;SDS011;54506;43.930;20.410;2022-08-19T01:33:39;8.27;;;4.90;;
61989;SDS011;54506;43.930;20.410;2022-08-19T01:36:10;9.27;;;5.15;;
61989;SDS011;54506;43.930;20.410;2022-08-19T01:38:37;7.80;;;5.15;;
61989;SDS011;54506;43.930;20.410;2022-08-19T01:41:03;8.02;;;5.20;;
61989;SDS011;54506;43.930;20.410;2022-08-19T01:43:29;8.13;;;4.88;;
61989;SDS011;54506;43.930;20.410;2022-08-19T01:45:54;7.97;;;4.70;;
61989;SDS011;54506;43.930;20.410;2022-08-19T01:48:20;9.20;;;5.15;;
61989;SDS011;54506;43.930;20.410;2022-08-19T01:50:45;8.60;;;5.10;;
61989;SDS011;54506;43.930;20.410;2022-08-19T01:53:12;9.90;;;5.53;;
61989;SDS011;54506;43.930;20.410;2022-08-19T01:55:39;9.05;;;5.50;;
61989;SDS011;54506;43.930;20.410;2022-08-19T01:58:06;9.90;;;5.80;;
61989;SDS011;54506;43.930;20.410;2022-08-19T02:00:33;8.50;;;5.10;;
61989;SDS011;54506;43.930;20.410;2022-08-19T02:02:58;9.52;;;5.80;;
61989;SDS011;54506;43.930;20.410;2022-08-19T02:05:26;8.80;;;5.82;;
61989;SDS011;54506;43.930;20.410;2022-08-19T02:07:52;8.20;;;5.07;;
61989;SDS011;54506;43.930;20.410;2022-08-19T02:10:19;9.25;;;5.28;;
61989;SDS011;54506;43.930;20.410;2022-08-19T02:12:45;9.27;;;5.35;;
61989;SDS011;54506;43.930;20.410;2022-08-19T02:15:11;8.80;;;5.63;;
61989;SDS011;54506;43.930;20.410;2022-08-19T02:17:37;8.90;;;5.47;;
61989;SDS011;54506;43.930;20.410;2022-08-19T02:20:03;9.27;;;5.15;;
61989;SDS011;54506;43.930;20.410;2022-08-19T02:22:29;9.48;;;5.30;;
61989;SDS011;54506;43.930;20.410;2022-08-19T02:24:54;8.98;;;5.55;;
61989;SDS011;54506;43.930;20.410;2022-08-19T02:27:20;8.05;;;4.97;;
61989;SDS011;54506;43.930;20.410;2022-08-19T02:29:46;9.27;;;5.10;;
61989;SDS011;54506;43.930;20.410;2022-08-19T02:32:12;8.52;;;4.80;;
61989;SDS011;54506;43.930;20.410;2022-08-19T02:34:38;9.13;;;5.82;;
61989;SDS011;54506;43.930;20.410;2022-08-19T02:37:04;9.18;;;5.05;;
61989;SDS011;54506;43.930;20.410;2022-08-19T02:39:30;9.23;;;5.28;;
61989;SDS011;54506;43.930;20.410;2022-08-19T02:41:55;9.45;;;5.38;;
61989;SDS011;54506;43.930;20.410;2022-08-19T02:44:21;8.52;;;5.32;;
61989;SDS011;54506;43.930;20.410;2022-08-19T02:46:47;8.70;;;5.28;;
61989;SDS011;54506;43.930;20.410;2022-08-19T02:49:13;9.32;;;5.40;;
61989;SDS011;54506;43.930;20.410;2022-08-19T02:51:42;9.30;;;5.10;;
61989;SDS011;54506;43.930;20.410;2022-08-19T02:54:08;8.77;;;5.28;;
61989;SDS011;54506;43.930;20.410;2022-08-19T02:56:35;8.88;;;5.80;;
61989;SDS011;54506;43.930;20.410;2022-08-19T02:59:02;9.38;;;5.50;;
61989;SDS011;54506;43.930;20.410;2022-08-19T03:01:29;10.15;;;5.70;;
61989;SDS011;54506;43.930;20.410;2022-08-19T03:03:58;9.93;;;5.45;;
61989;SDS011;54506;43.930;20.410;2022-08-19T03:06:24;9.45;;;5.50;;
61989;SDS011;54506;43.930;20.410;2022-08-19T03:08:50;8.70;;;5.20;;
61989;SDS011;54506;43.930;20.410;2022-08-19T03:11:18;9.05;;;5.68;;
61989;SDS011;54506;43.930;20.410;2022-08-19T03:13:44;9.80;;;5.50;;
61989;SDS011;54506;43.930;20.410;2022-08-19T03:16:09;9.00;;;5.40;;
61989;SDS011;54506;43.930;20.410;2022-08-19T03:18:35;8.88;;;5.10;;
61989;SDS011;54506;43.930;20.410;2022-08-19T03:21:01;9.23;;;5.13;;
61989;SDS011;54506;43.930;20.410;2022-08-19T03:23:26;10.43;;;5.43;;
61989;SDS011;54506;43.930;20.410;2022-08-19T03:25:52;8.95;;;5.50;;
61989;SDS011;54506;43.930;20.410;2022-08-19T03:28:19;9.52;;;5.30;;
61989;SDS011;54506;43.930;20.410;2022-08-19T03:30:54;9.20;;;5.78;;
61989;SDS011;54506;43.930;20.410;2022-08-19T03:33:26;9.27;;;5.47;;
61989;SDS011;54506;43.930;20.410;2022-08-19T03:38:31;9.65;;;6.10;;
61989;SDS011;54506;43.930;20.410;2022-08-19T03:40:57;9.43;;;5.47;;
61989;SDS011;54506;43.930;20.410;2022-08-19T03:43:22;9.52;;;5.72;;
61989;SDS011;54506;43.930;20.410;2022-08-19T03:45:48;9.23;;;5.70;;
61989;SDS011;54506;43.930;20.410;2022-08-19T03:48:14;9.60;;;5.88;;
61989;SDS011;54506;43.930;20.410;2022-08-19T03:50:41;8.88;;;5.40;;
61989;SDS011;54506;43.930;20.410;2022-08-19T03:53:07;9.85;;;5.53;;
61989;SDS011;54506;43.930;20.410;2022-08-19T03:55:34;11.02;;;5.93;;
61989;SDS011;54506;43.930;20.410;2022-08-19T03:58:03;9.45;;;5.72;;
61989;SDS011;54506;43.930;20.410;2022-08-19T04:00:29;10.10;;;5.53;;
61989;SDS011;54506;43.930;20.410;2022-08-19T04:02:54;10.10;;;6.32;;
61989;SDS011;54506;43.930;20.410;2022-08-19T04:05:20;9.60;;;5.78;;
61989;SDS011;54506;43.930;20.410;2022-08-19T04:07:45;10.27;;;6.40;;
61989;SDS011;54506;43.930;20.410;2022-08-19T04:10:11;10.18;;;6.25;;
61989;SDS011;54506;43.930;20.410;2022-08-19T04:12:36;13.50;;;5.78;;
61989;SDS011;54506;43.930;20.410;2022-08-19T04:15:03;9.55;;;6.03;;
61989;SDS011;54506;43.930;20.410;2022-08-19T04:17:28;10.90;;;6.18;;
61989;SDS011;54506;43.930;20.410;2022-08-19T04:19:54;9.70;;;5.70;;
61989;SDS011;54506;43.930;20.410;2022-08-19T04:22:19;10.75;;;5.53;;
61989;SDS011;54506;43.930;20.410;2022-08-19T04:24:45;11.68;;;6.10;;
61989;SDS011;54506;43.930;20.410;2022-08-19T04:27:10;10.18;;;6.05;;
61989;SDS011;54506;43.930;20.410;2022-08-19T04:29:37;10.52;;;6.18;;
61989;SDS011;54506;43.930;20.410;2022-08-19T04:32:04;10.27;;;6.05;;
61989;SDS011;54506;43.930;20.410;2022-08-19T04:34:30;9.57;;;6.00;;
61989;SDS011;54506;43.930;20.410;2022-08-19T04:36:56;10.23;;;5.85;;
61989;SDS011;54506;43.930;20.410;2022-08-19T04:39:25;10.25;;;5.88;;
61989;SDS011;54506;43.930;20.410;2022-08-19T04:42:13;11.15;;;5.75;;
61989;SDS011;54506;43.930;20.410;2022-08-19T04:44:57;9.60;;;5.47;;
61989;SDS011;54506;43.930;20.410;2022-08-19T04:47:23;12.30;;;6.15;;
61989;SDS011;54506;43.930;20.410;2022-08-19T04:49:49;13.10;;;6.15;;
61989;SDS011;54506;43.930;20.410;2022-08-19T04:52:14;12.07;;;5.85;;
61989;SDS011;54506;43.930;20.410;2022-08-19T04:54:40;10.13;;;5.55;;
61989;SDS011;54506;43.930;20.410;2022-08-19T04:57:06;11.50;;;5.53;;
61989;SDS011;54506;43.930;20.410;2022-08-19T04:59:33;8.77;;;5.38;;
61989;SDS011;54506;43.930;20.410;2022-08-19T05:01:58;8.60;;;5.38;;
61989;SDS011;54506;43.930;20.410;2022-08-19T05:04:24;9.63;;;5.45;;
61989;SDS011;54506;43.930;20.410;2022-08-19T05:06:49;9.95;;;5.75;;
61989;SDS011;54506;43.930;20.410;2022-08-19T05:09:15;8.30;;;5.20;;
61989;SDS011;54506;43.930;20.410;2022-08-19T05:11:41;9.00;;;5.35;;
61989;SDS011;54506;43.930;20.410;2022-08-19T05:14:07;8.30;;;5.10;;
61989;SDS011;54506;43.930;20.410;2022-08-19T05:16:32;8.68;;;5.18;;
61989;SDS011;54506;43.930;20.410;2022-08-19T05:18:58;9.30;;;5.20;;
61989;SDS011;54506;43.930;20.410;2022-08-19T05:21:42;8.30;;;5.28;;
61989;SDS011;54506;43.930;20.410;2022-08-19T05:24:26;8.60;;;4.88;;
61989;SDS011;54506;43.930;20.410;2022-08-19T05:26:52;9.32;;;4.68;;
61989;SDS011;54506;43.930;20.410;2022-08-19T05:29:22;9.00;;;5.05;;
61989;SDS011;54506;43.930;20.410;2022-08-19T05:31:48;10.15;;;5.45;;
61989;SDS011;54506;43.930;20.410;2022-08-19T05:34:17;7.95;;;4.95;;
61989;SDS011;54506;43.930;20.410;2022-08-19T05:36:44;8.25;;;5.00;;
61989;SDS011;54506;43.930;20.410;2022-08-19T05:39:14;8.02;;;5.10;;
61989;SDS011;54506;43.930;20.410;2022-08-19T05:41:41;7.88;;;4.72;;
61989;SDS011;54506;43.930;20.410;2022-08-19T05:44:07;9.02;;;5.43;;
61989;SDS011;54506;43.930;20.410;2022-08-19T05:46:34;8.82;;;5.18;;
61989;SDS011;54506;43.930;20.410;2022-08-19T05:49:00;7.95;;;4.90;;
61989;SDS011;54506;43.930;20.410;2022-08-19T05:51:26;8.60;;;5.28;;
61989;SDS011;54506;43.930;20.410;2022-08-19T05:53:51;7.53;;;4.90;;
61989;SDS011;54506;43.930;20.410;2022-08-19T05:56:17;7.80;;;5.30;;
61989;SDS011;54506;43.930;20.410;2022-08-19T05:58:43;8.70;;;5.15;;
61989;SDS011;54506;43.930;20.410;2022-08-19T06:01:14;8.02;;;5.43;;
61989;SDS011;54506;43.930;20.410;2022-08-19T06:03:40;8.80;;;5.05;;
61989;SDS011;54506;43.930;20.410;2022-08-19T06:06:06;8.43;;;4.90;;
61989;SDS011;54506;43.930;20.410;2022-08-19T06:08:33;8.07;;;4.82;;
61989;SDS011;54506;43.930;20.410;2022-08-19T06:10:59;8.25;;;5.13;;
61989;SDS011;54506;43.930;20.410;2022-08-19T06:13:42;10.25;;;5.35;;
61989;SDS011;54506;43.930;20.410;2022-08-19T06:16:08;7.72;;;5.05;;
61989;SDS011;54506;43.930;20.410;2022-08-19T06:18:33;9.63;;;5.95;;
61989;SDS011;54506;43.930;20.410;2022-08-19T06:20:59;12.90;;;6.05;;
61989;SDS011;54506;43.930;20.410;2022-08-19T06:23:25;10.10;;;5.10;;
61989;SDS011;54506;43.930;20.410;2022-08-19T06:25:51;11.13;;;5.40;;
61989;SDS011;54506;43.930;20.410;2022-08-19T06:28:16;7.82;;;4.40;;
61989;SDS011;54506;43.930;20.410;2022-08-19T06:30:42;8.15;;;4.47;;
61989;SDS011;54506;43.930;20.410;2022-08-19T06:33:07;10.27;;;5.05;;
61989;SDS011;54506;43.930;20.410;2022-08-19T06:35:32;10.98;;;4.82;;
61989;SDS011;54506;43.930;20.410;2022-08-19T06:37:58;8.63;;;4.97;;
61989;SDS011;54506;43.930;20.410;2022-08-19T06:40:24;9.77;;;5.20;;
61989;SDS011;54506;43.930;20.410;2022-08-19T06:42:50;8.65;;;4.72;;
61989;SDS011;54506;43.930;20.410;2022-08-19T06:45:17;10.48;;;4.85;;
61989;SDS011;54506;43.930;20.410;2022-08-19T06:47:43;10.27;;;4.93;;
61989;SDS011;54506;43.930;20.410;2022-08-19T06:50:11;7.85;;;4.47;;
61989;SDS011;54506;43.930;20.410;2022-08-19T06:52:37;8.43;;;4.93;;
61989;SDS011;54506;43.930;20.410;2022-08-19T06:55:04;8.50;;;4.40;;
61989;SDS011;54506;43.930;20.410;2022-08-19T06:57:30;8.35;;;4.85;;
61989;SDS011;54506;43.930;20.410;2022-08-19T06:59:57;8.05;;;4.43;;
61989;SDS011;54506;43.930;20.410;2022-08-19T07:02:25;7.68;;;4.28;;
61989;SDS011;54506;43.930;20.410;2022-08-19T07:04:51;7.22;;;4.47;;
61989;SDS011;54506;43.930;20.410;2022-08-19T07:07:17;7.75;;;4.30;;
61989;SDS011;54506;43.930;20.410;2022-08-19T07:09:43;10.43;;;5.15;;
61989;SDS011;54506;43.930;20.410;2022-08-19T07:12:09;7.78;;;4.57;;
61989;SDS011;54506;43.930;20.410;2022-08-19T07:14:35;8.85;;;4.53;;
61989;SDS011;54506;43.930;20.410;2022-08-19T07:17:03;7.70;;;4.50;;
61989;SDS011;54506;43.930;20.410;2022-08-19T07:19:29;8.93;;;4.60;;
61989;SDS011;54506;43.930;20.410;2022-08-19T07:21:55;8.40;;;4.45;;
61989;SDS011;54506;43.930;20.410;2022-08-19T07:24:22;8.00;;;4.60;;
61989;SDS011;54506;43.930;20.410;2022-08-19T07:26:49;7.28;;;4.22;;
61989;SDS011;54506;43.930;20.410;2022-08-19T07:29:16;7.57;;;4.15;;
61989;SDS011;54506;43.930;20.410;2022-08-19T07:31:42;8.90;;;4.35;;
61989;SDS011;54506;43.930;20.410;2022-08-19T07:34:10;7.43;;;4.10;;
61989;SDS011;54506;43.930;20.410;2022-08-19T07:36:39;6.78;;;4.20;;
61989;SDS011;54506;43.930;20.410;2022-08-19T07:39:38;7.32;;;4.15;;
61989;SDS011;54506;43.930;20.410;2022-08-19T07:41:58;9.18;;;4.78;;
61989;SDS011;54506;43.930;20.410;2022-08-19T07:44:23;7.50;;;4.50;;
61989;SDS011;54506;43.930;20.410;2022-08-19T07:46:50;9.38;;;4.47;;
61989;SDS011;54506;43.930;20.410;2022-08-19T07:49:17;7.47;;;4.30;;
61989;SDS011;54506;43.930;20.410;2022-08-19T07:51:54;7.47;;;4.20;;
61989;SDS011;54506;43.930;20.410;2022-08-19T07:54:21;8.13;;;4.10;;
61989;SDS011;54506;43.930;20.410;2022-08-19T07:56:47;7.72;;;3.83;;
61989;SDS011;54506;43.930;20.410;2022-08-19T07:59:12;7.38;;;4.10;;
61989;SDS011;54506;43.930;20.410;2022-08-19T08:01:38;9.98;;;4.30;;
61989;SDS011;54506;43.930;20.410;2022-08-19T08:04:05;7.70;;;4.20;;
61989;SDS011;54506;43.930;20.410;2022-08-19T08:06:50;7.75;;;4.53;;
61989;SDS011;54506;43.930;20.410;2022-08-19T08:09:35;16.27;;;5.53;;
61989;SDS011;54506;43.930;20.410;2022-08-19T08:12:06;8.15;;;4.82;;
61989;SDS011;54506;43.930;20.410;2022-08-19T08:14:35;9.35;;;4.90;;
61989;SDS011;54506;43.930;20.410;2022-08-19T08:17:02;9.23;;;5.05;;
61989;SDS011;54506;43.930;20.410;2022-08-19T08:19:28;16.25;;;5.60;;
61989;SDS011;54506;43.930;20.410;2022-08-19T08:21:55;11.40;;;5.63;;
61989;SDS011;54506;43.930;20.410;2022-08-19T08:24:21;9.43;;;5.10;;
61989;SDS011;54506;43.930;20.410;2022-08-19T08:26:47;7.75;;;4.47;;
61989;SDS011;54506;43.930;20.410;2022-08-19T08:29:13;11.70;;;5.05;;
61989;SDS011;54506;43.930;20.410;2022-08-19T08:31:39;8.00;;;4.35;;
61989;SDS011;54506;43.930;20.410;2022-08-19T08:34:06;8.18;;;4.32;;
61989;SDS011;54506;43.930;20.410;2022-08-19T08:36:31;8.32;;;4.20;;
61989;SDS011;54506;43.930;20.410;2022-08-19T08:38:59;8.15;;;4.30;;
61989;SDS011;54506;43.930;20.410;2022-08-19T08:41:44;7.38;;;4.53;;
61989;SDS011;54506;43.930;20.410;2022-08-19T08:44:23;7.45;;;4.18;;
61989;SDS011;54506;43.930;20.410;2022-08-19T08:47:00;6.30;;;3.58;;
61989;SDS011;54506;43.930;20.410;2022-08-19T08:52:04;7.95;;;3.80;;
61989;SDS011;54506;43.930;20.410;2022-08-19T08:54:35;7.32;;;3.90;;
61989;SDS011;54506;43.930;20.410;2022-08-19T08:57:02;7.53;;;3.97;;
61989;SDS011;54506;43.930;20.410;2022-08-19T08:59:34;7.47;;;3.63;;
61989;SDS011;54506;43.930;20.410;2022-08-19T09:02:01;7.18;;;3.95;;
61989;SDS011;54506;43.930;20.410;2022-08-19T09:04:27;7.15;;;4.00;;
61989;SDS011;54506;43.930;20.410;2022-08-19T09:07:01;6.80;;;4.07;;
61989;SDS011;54506;43.930;20.410;2022-08-19T09:09:34;6.90;;;3.97;;
61989;SDS011;54506;43.930;20.410;2022-08-19T09:12:19;6.43;;;4.10;;
61989;SDS011;54506;43.930;20.410;2022-08-19T09:15:03;9.05;;;3.95;;
61989;SDS011;54506;43.930;20.410;2022-08-19T09:17:29;7.05;;;4.00;;
61989;SDS011;54506;43.930;20.410;2022-08-19T09:20:00;6.47;;;3.75;;
61989;SDS011;54506;43.930;20.410;2022-08-19T09:22:31;7.32;;;3.50;;
61989;SDS011;54506;43.930;20.410;2022-08-19T09:24:56;7.72;;;4.00;;
61989;SDS011;54506;43.930;20.410;2022-08-19T09:27:22;6.18;;;3.78;;
61989;SDS011;54506;43.930;20.410;2022-08-19T09:29:51;7.03;;;4.15;;
61989;SDS011;54506;43.930;20.410;2022-08-19T09:32:16;8.20;;;3.80;;
61989;SDS011;54506;43.930;20.410;2022-08-19T09:34:43;7.07;;;4.10;;
61989;SDS011;54506;43.930;20.410;2022-08-19T09:37:09;12.40;;;4.20;;
61989;SDS011;54506;43.930;20.410;2022-08-19T09:39:34;9.18;;;3.90;;
61989;SDS011;54506;43.930;20.410;2022-08-19T09:42:00;9.30;;;4.03;;
61989;SDS011;54506;43.930;20.410;2022-08-19T09:44:25;7.57;;;3.55;;
61989;SDS011;54506;43.930;20.410;2022-08-19T09:46:51;7.85;;;3.80;;
61989;SDS011;54506;43.930;20.410;2022-08-19T09:49:17;6.97;;;3.45;;
61989;SDS011;54506;43.930;20.410;2022-08-19T09:51:42;10.00;;;3.90;;
61989;SDS011;54506;43.930;20.410;2022-08-19T09:54:08;7.28;;;3.75;;
61989;SDS011;54506;43.930;20.410;2022-08-19T09:56:35;7.00;;;3.83;;
61989;SDS011;54506;43.930;20.410;2022-08-19T09:59:02;6.50;;;3.60;;
61989;SDS011;54506;43.930;20.410;2022-08-19T10:01:29;6.68;;;3.65;;
61989;SDS011;54506;43.930;20.410;2022-08-19T10:03:56;7.28;;;3.63;;
61989;SDS011;54506;43.930;20.410;2022-08-19T10:06:22;7.45;;;3.97;;
61989;SDS011;54506;43.930;20.410;2022-08-19T10:08:49;7.32;;;3.75;;
61989;SDS011;54506;43.930;20.410;2022-08-19T10:11:15;5.90;;;3.67;;
61989;SDS011;54506;43.930;20.410;2022-08-19T10:13:43;7.97;;;4.18;;
61989;SDS011;54506;43.930;20.410;2022-08-19T10:16:10;7.18;;;3.55;;
61989;SDS011;54506;43.930;20.410;2022-08-19T10:18:36;7.15;;;3.72;;
61989;SDS011;54506;43.930;20.410;2022-08-19T10:21:09;6.45;;;3.60;;
61989;SDS011;54506;43.930;20.410;2022-08-19T10:23:36;6.85;;;3.80;;
61989;SDS011;54506;43.930;20.410;2022-08-19T10:26:03;7.38;;;3.47;;
61989;SDS011;54506;43.930;20.410;2022-08-19T10:28:34;7.80;;;3.70;;
61989;SDS011;54506;43.930;20.410;2022-08-19T10:31:08;8.75;;;3.70;;
61989;SDS011;54506;43.930;20.410;2022-08-19T10:33:35;6.43;;;3.30;;
61989;SDS011;54506;43.930;20.410;2022-08-19T10:36:05;6.00;;;3.30;;
61989;SDS011;54506;43.930;20.410;2022-08-19T10:38:31;7.00;;;3.63;;
61989;SDS011;54506;43.930;20.410;2022-08-19T10:40:56;7.30;;;3.67;;
61989;SDS011;54506;43.930;20.410;2022-08-19T10:43:22;7.45;;;3.55;;
61989;SDS011;54506;43.930;20.410;2022-08-19T10:45:54;6.85;;;3.40;;
61989;SDS011;54506;43.930;20.410;2022-08-19T10:48:23;8.40;;;3.80;;
61989;SDS011;54506;43.930;20.410;2022-08-19T10:50:49;6.95;;;3.17;;
61989;SDS011;54506;43.930;20.410;2022-08-19T10:53:32;7.43;;;3.45;;
61989;SDS011;54506;43.930;20.410;2022-08-19T10:55:58;6.78;;;3.90;;
61989;SDS011;54506;43.930;20.410;2022-08-19T10:58:41;7.20;;;3.38;;
61989;SDS011;54506;43.930;20.410;2022-08-19T11:01:07;6.63;;;3.28;;
61989;SDS011;54506;43.930;20.410;2022-08-19T11:03:32;5.57;;;3.15;;
61989;SDS011;54506;43.930;20.410;2022-08-19T11:06:05;9.35;;;5.10;;
61989;SDS011;54506;43.930;20.410;2022-08-19T11:08:31;8.23;;;3.38;;
61989;SDS011;54506;43.930;20.410;2022-08-19T11:10:58;6.35;;;3.25;;
61989;SDS011;54506;43.930;20.410;2022-08-19T11:13:25;6.05;;;3.20;;
61989;SDS011;54506;43.930;20.410;2022-08-19T11:16:02;5.55;;;3.10;;
61989;SDS011;54506;43.930;20.410;2022-08-19T11:18:27;5.78;;;3.40;;
61989;SDS011;54506;43.930;20.410;2022-08-19T11:20:53;8.80;;;3.42;;
61989;SDS011;54506;43.930;20.410;2022-08-19T11:23:18;16.90;;;4.43;;
61989;SDS011;54506;43.930;20.410;2022-08-19T11:25:44;6.70;;;3.88;;
61989;SDS011;54506;43.930;20.410;2022-08-19T11:28:10;9.10;;;3.58;;
61989;SDS011;54506;43.930;20.410;2022-08-19T11:30:36;8.80;;;3.20;;
61989;SDS011;54506;43.930;20.410;2022-08-19T11:33:02;7.10;;;3.30;;
61989;SDS011;54506;43.930;20.410;2022-08-19T11:35:27;7.43;;;3.20;;
61989;SDS011;54506;43.930;20.410;2022-08-19T11:37:53;7.28;;;3.38;;
61989;SDS011;54506;43.930;20.410;2022-08-19T11:40:18;7.53;;;3.22;;
61989;SDS011;54506;43.930;20.410;2022-08-19T11:42:44;5.50;;;3.40;;
61989;SDS011;54506;43.930;20.410;2022-08-19T11:45:25;5.68;;;3.20;;
61989;SDS011;54506;43.930;20.410;2022-08-19T11:47:51;7.57;;;3.15;;
61989;SDS011;54506;43.930;20.410;2022-08-19T11:50:16;7.10;;;3.20;;
61989;SDS011;54506;43.930;20.410;2022-08-19T11:52:42;6.10;;;3.05;;
61989;SDS011;54506;43.930;20.410;2022-08-19T11:55:09;5.80;;;3.03;;
61989;SDS011;54506;43.930;20.410;2022-08-19T11:57:34;6.45;;;3.20;;
61989;SDS011;54506;43.930;20.410;2022-08-19T12:00:00;6.68;;;3.17;;
61989;SDS011;54506;43.930;20.410;2022-08-19T12:02:26;6.15;;;3.08;;
61989;SDS011;54506;43.930;20.410;2022-08-19T12:04:51;7.28;;;3.38;;
61989;SDS011;54506;43.930;20.410;2022-08-19T12:07:17;6.65;;;3.35;;
61989;SDS011;54506;43.930;20.410;2022-08-19T12:09:42;6.10;;;2.67;;
61989;SDS011;54506;43.930;20.410;2022-08-19T12:12:08;9.73;;;2.92;;
61989;SDS011;54506;43.930;20.410;2022-08-19T12:14:34;6.03;;;2.70;;
61989;SDS011;54506;43.930;20.410;2022-08-19T12:17:00;7.38;;;3.00;;
61989;SDS011;54506;43.930;20.410;2022-08-19T12:19:27;6.07;;;3.05;;
61989;SDS011;54506;43.930;20.410;2022-08-19T12:21:53;6.13;;;3.10;;
61989;SDS011;54506;43.930;20.410;2022-08-19T12:24:24;5.95;;;2.90;;
61989;SDS011;54506;43.930;20.410;2022-08-19T12:26:50;6.68;;;3.03;;
61989;SDS011;54506;43.930;20.410;2022-08-19T12:29:16;6.93;;;2.97;;
61989;SDS011;54506;43.930;20.410;2022-08-19T12:31:41;6.78;;;3.10;;
61989;SDS011;54506;43.930;20.410;2022-08-19T12:34:07;6.47;;;2.90;;
61989;SDS011;54506;43.930;20.410;2022-08-19T12:36:32;8.32;;;2.97;;
61989;SDS011;54506;43.930;20.410;2022-08-19T12:38:58;6.47;;;2.95;;
61989;SDS011;54506;43.930;20.410;2022-08-19T12:41:24;6.35;;;2.80;;
61989;SDS011;54506;43.930;20.410;2022-08-19T12:43:50;6.70;;;2.90;;
61989;SDS011;54506;43.930;20.410;2022-08-19T12:46:16;5.97;;;2.88;;
61989;SDS011;54506;43.930;20.410;2022-08-19T12:48:41;7.50;;;3.03;;
61989;SDS011;54506;43.930;20.410;2022-08-19T12:51:11;6.25;;;2.80;;
61989;SDS011;54506;43.930;20.410;2022-08-19T12:53:37;7.72;;;3.10;;
61989;SDS011;54506;43.930;20.410;2022-08-19T12:56:02;7.35;;;3.40;;
61989;SDS011;54506;43.930;20.410;2022-08-19T12:58:28;5.82;;;3.10;;
61989;SDS011;54506;43.930;20.410;2022-08-19T13:00:54;5.75;;;2.80;;
61989;SDS011;54506;43.930;20.410;2022-08-19T13:03:20;8.40;;;3.03;;
61989;SDS011;54506;43.930;20.410;2022-08-19T13:05:47;7.28;;;3.15;;
61989;SDS011;54506;43.930;20.410;2022-08-19T13:08:12;8.38;;;2.83;;
61989;SDS011;54506;43.930;20.410;2022-08-19T13:10:38;7.25;;;2.90;;
61989;SDS011;54506;43.930;20.410;2022-08-19T13:13:04;8.02;;;3.35;;
61989;SDS011;54506;43.930;20.410;2022-08-19T13:15:32;9.10;;;3.00;;
61989;SDS011;54506;43.930;20.410;2022-08-19T13:17:58;6.55;;;3.05;;
61989;SDS011;54506;43.930;20.410;2022-08-19T13:20:24;6.07;;;2.75;;
61989;SDS011;54506;43.930;20.410;2022-08-19T13:22:49;6.60;;;2.97;;
61989;SDS011;54506;43.930;20.410;2022-08-19T13:25:15;6.00;;;2.83;;
61989;SDS011;54506;43.930;20.410;2022-08-19T13:27:42;9.35;;;3.10;;
61989;SDS011;54506;43.930;20.410;2022-08-19T13:30:09;6.28;;;3.00;;
61989;SDS011;54506;43.930;20.410;2022-08-19T13:32:54;6.65;;;2.90;;
61989;SDS011;54506;43.930;20.410;2022-08-19T13:35:42;5.97;;;2.75;;
61989;SDS011;54506;43.930;20.410;2022-08-19T13:38:08;6.43;;;2.95;;
61989;SDS011;54506;43.930;20.410;2022-08-19T13:40:34;7.93;;;3.42;;
61989;SDS011;54506;43.930;20.410;2022-08-19T13:42:59;6.53;;;2.95;;
61989;SDS011;54506;43.930;20.410;2022-08-19T13:45:26;7.45;;;2.80;;
61989;SDS011;54506;43.930;20.410;2022-08-19T13:47:53;9.18;;;3.53;;
61989;SDS011;54506;43.930;20.410;2022-08-19T13:50:20;7.15;;;3.30;;
61989;SDS011;54506;43.930;20.410;2022-08-19T13:52:46;7.25;;;3.00;;
61989;SDS011;54506;43.930;20.410;2022-08-19T13:55:12;11.07;;;3.63;;
61989;SDS011;54506;43.930;20.410;2022-08-19T13:57:38;16.35;;;5.18;;
61989;SDS011;54506;43.930;20.410;2022-08-19T14:00:05;6.60;;;3.20;;
61989;SDS011;54506;43.930;20.410;2022-08-19T14:02:31;7.47;;;3.20;;
61989;SDS011;54506;43.930;20.410;2022-08-19T14:04:56;8.80;;;3.60;;
61989;SDS011;54506;43.930;20.410;2022-08-19T14:07:22;7.50;;;3.20;;
61989;SDS011;54506;43.930;20.410;2022-08-19T14:09:49;14.35;;;3.80;;
61989;SDS011;54506;43.930;20.410;2022-08-19T14:12:18;8.65;;;3.50;;
61989;SDS011;54506;43.930;20.410;2022-08-19T14:14:43;16.02;;;9.05;;
61989;SDS011;54506;43.930;20.410;2022-08-19T14:17:08;6.78;;;3.22;;
61989;SDS011;54506;43.930;20.410;2022-08-19T14:19:34;10.50;;;3.60;;
61989;SDS011;54506;43.930;20.410;2022-08-19T14:21:59;8.05;;;3.30;;
61989;SDS011;54506;43.930;20.410;2022-08-19T14:24:25;8.10;;;3.60;;
61989;SDS011;54506;43.930;20.410;2022-08-19T14:26:50;9.20;;;3.50;;
61989;SDS011;54506;43.930;20.410;2022-08-19T14:29:16;7.53;;;3.50;;
61989;SDS011;54506;43.930;20.410;2022-08-19T14:31:41;7.40;;;3.50;;
61989;SDS011;54506;43.930;20.410;2022-08-19T14:34:09;7.75;;;3.20;;
61989;SDS011;54506;43.930;20.410;2022-08-19T14:36:35;8.48;;;4.95;;
61989;SDS011;54506;43.930;20.410;2022-08-19T14:39:01;9.43;;;4.82;;